Time;durP1;ratioP1;P1;durP2;ratioP2;P2;SDS_P1;SDS_P2;PMS_P1;PMS_P2;Temp;Humidity;BMP_temperature;BMP_pressure;BME280_temperature;BME280_humidity;BME280_pressure;Samples;Min_cycle;Max_cycle;Signal;HPM_P1;HPM_P2
2021/04/13 00:01:10;;;;;;;1.83;1.50;;;18.80;54.70;;;;;;5024491;28;20038;-42
2021/04/13 00:03:38;;;;;;;1.80;1.70;;;18.80;54.50;;;;;;5019599;28;20402;-43
2021/04/13 00:06:03;;;;;;;2.67;1.63;;;18.70;54.70;;;;;;5024598;28;20499;-43
2021/04/13 00:08:29;;;;;;;1.80;1.70;;;18.70;55.20;;;;;;5029372;28;20100;-40
2021/04/13 00:10:58;;;;;;;1.80;1.70;;;18.80;54.50;;;;;;5023060;28;20394;-42
2021/04/13 00:13:24;;;;;;;1.60;1.50;;;18.80;54.60;;;;;;5026443;28;20018;-42
2021/04/13 00:15:51;;;;;;;1.52;1.42;;;18.80;54.40;;;;;;5025458;28;20398;-40
2021/04/13 00:18:19;;;;;;;1.63;1.52;;;18.80;54.50;;;;;;5026215;28;20026;-46
2021/04/13 00:21:16;;;;;;;1.73;1.63;;;18.80;54.50;;;;;;4996531;28;20417;-42
2021/04/13 00:23:42;;;;;;;1.50;1.40;;;18.80;54.40;;;;;;5008338;28;20111;-42
2021/04/13 00:26:09;;;;;;;1.65;1.55;;;18.70;54.50;;;;;;5019882;28;20047;-43
2021/04/13 00:28:43;;;;;;;1.33;1.23;;;18.70;54.60;;;;;;5024765;28;20022;-41
2021/04/13 00:31:13;;;;;;;1.25;1.15;;;18.70;54.50;;;;;;5025621;28;20033;-41
2021/04/13 00:33:38;;;;;;;1.48;1.38;;;18.70;54.50;;;;;;5013951;28;20091;-44
2021/04/13 00:36:10;;;;;;;1.70;1.60;;;18.70;54.40;;;;;;5034570;28;20431;-41
2021/04/13 00:38:41;;;;;;;1.60;1.50;;;18.70;54.40;;;;;;5033373;28;20030;-41
2021/04/13 00:41:19;;;;;;;1.40;1.30;;;18.60;54.50;;;;;;5016545;28;20386;-40
2021/04/13 00:43:53;;;;;;;1.70;1.60;;;18.60;54.50;;;;;;5027672;28;20053;-41
2021/04/13 00:46:21;;;;;;;1.58;1.48;;;18.60;54.50;;;;;;5025605;28;20029;-41
2021/04/13 00:48:46;;;;;;;1.50;1.40;;;18.60;54.50;;;;;;5024867;28;20107;-42
2021/04/13 00:51:31;;;;;;;1.88;1.77;;;18.60;54.50;;;;;;5029578;28;20061;-42
2021/04/13 00:54:05;;;;;;;1.75;1.65;;;18.50;54.50;;;;;;5023142;28;20056;-42
2021/04/13 00:56:30;;;;;;;1.58;1.48;;;18.50;54.50;;;;;;5023433;28;20017;-41
2021/04/13 00:59:08;;;;;;;1.38;1.27;;;18.70;54.50;;;;;;5006911;28;20045;-41
2021/04/13 01:01:36;;;;;;;1.75;1.65;;;18.70;54.30;;;;;;5010100;28;20021;-42
2021/04/13 01:04:08;;;;;;;1.55;1.45;;;18.70;54.10;;;;;;5042373;28;20125;-41
2021/04/13 01:06:34;;;;;;;3.03;1.77;;;18.70;54.10;;;;;;5010464;28;20090;-42
2021/04/13 01:09:04;;;;;;;1.75;1.65;;;18.70;54.10;;;;;;5026800;28;20056;-41
2021/04/13 01:11:31;;;;;;;1.30;1.30;;;18.60;54.20;;;;;;5027978;28;20025;-41
2021/04/13 01:14:00;;;;;;;1.60;1.50;;;18.50;54.40;;;;;;5024568;28;20029;-42
2021/04/13 01:16:41;;;;;;;1.48;1.38;;;18.50;54.50;;;;;;5019340;28;20029;-45
2021/04/13 01:19:27;;;;;;;1.60;1.50;;;18.60;54.30;;;;;;5038311;28;20048;-43
2021/04/13 01:22:00;;;;;;;1.20;1.20;;;18.60;54.40;;;;;;5025294;28;20025;-41
2021/04/13 01:24:30;;;;;;;1.58;1.48;;;18.60;54.40;;;;;;4989020;28;20116;-40
2021/04/13 01:26:56;;;;;;;1.50;1.40;;;18.60;54.20;;;;;;5011334;28;20025;-42
2021/04/13 01:29:28;;;;;;;1.55;1.45;;;18.60;54.30;;;;;;5007451;28;20112;-43
2021/04/13 01:31:56;;;;;;;1.42;1.33;;;18.60;54.20;;;;;;5029420;28;20038;-43
2021/04/13 01:34:35;;;;;;;1.88;1.77;;;18.60;54.30;;;;;;5023064;28;20022;-40
2021/04/13 01:39:59;;;;;;;1.40;1.30;;;18.60;54.30;;;;;;5016615;28;20030;-42
2021/04/13 01:42:26;;;;;;;1.40;1.30;;;18.60;54.70;;;;;;5029292;28;20124;-42
2021/04/13 01:44:55;;;;;;;1.60;1.50;;;18.60;54.10;;;;;;4996118;28;20041;-41
2021/04/13 01:47:21;;;;;;;1.30;1.20;;;18.60;54.20;;;;;;5023977;28;20025;-43
2021/04/13 01:49:52;;;;;;;1.23;1.13;;;18.50;54.20;;;;;;5024845;28;20061;-43
2021/04/13 01:52:25;;;;;;;1.10;1.10;;;18.50;54.20;;;;;;5026859;28;20513;-43
2021/04/13 01:54:51;;;;;;;1.40;1.30;;;18.50;54.10;;;;;;5018237;28;20034;-41
2021/04/13 01:57:41;;;;;;;1.00;1.00;;;18.50;54.30;;;;;;5006048;28;20083;-41
2021/04/13 02:00:15;;;;;;;1.42;1.33;;;18.50;54.30;;;;;;5023906;28;20049;-43
2021/04/13 02:02:49;;;;;;;1.25;1.17;;;18.40;54.30;;;;;;5024424;28;20026;-42
2021/04/13 02:05:16;;;;;;;;;;;18.40;54.40;;;;;;5019148;28;20092;-41
2021/04/13 02:10:35;;;;;;;2.33;1.33;;;18.50;54.00;;;;;;5015298;28;20054;-41
2021/04/13 02:13:06;;;;;;;1.50;1.40;;;18.50;54.20;;;;;;5015568;28;20045;-36
2021/04/13 02:15:55;;;;;;;1.92;1.83;;;18.50;54.30;;;;;;5030556;28;20026;-40
2021/04/13 02:18:35;;;;;;;1.50;1.40;;;18.50;54.20;;;;;;5034479;28;20493;-42
2021/04/13 02:21:04;;;;;;;1.38;1.38;;;18.50;54.80;;;;;;5024608;28;20030;-42
2021/04/13 02:23:30;;;;;;;1.30;1.20;;;18.50;54.20;;;;;;5008609;28;20029;-41
2021/04/13 02:26:00;;;;;;;1.38;1.27;;;18.40;54.30;;;;;;5034364;28;20576;-41
2021/04/13 02:28:26;;;;;;;1.17;1.17;;;18.30;54.30;;;;;;5013939;28;20026;-40
2021/04/13 02:30:52;;;;;;;1.40;1.30;;;18.30;54.30;;;;;;5031658;28;20390;-41
2021/04/13 02:33:17;;;;;;;1.08;1.05;;;18.50;54.20;;;;;;5016130;28;20022;-40
2021/04/13 02:35:43;;;;;;;1.55;1.45;;;18.40;54.20;;;;;;5030825;28;20030;-41
2021/04/13 02:38:12;;;;;;;1.30;1.20;;;18.30;54.40;;;;;;5022596;28;20032;-40
2021/04/13 02:40:46;;;;;;;1.23;1.20;;;18.30;54.40;;;;;;5028931;28;20034;-42
2021/04/13 02:43:15;;;;;;;;;;;18.40;54.10;;;;;;5013470;28;20465;-41
2021/04/13 02:45:51;;;;;;;1.27;1.17;;;18.40;54.10;;;;;;5027798;28;19983;-43
2021/04/13 02:48:27;;;;;;;1.60;1.50;;;18.40;54.10;;;;;;5027977;28;20109;-42
2021/04/13 02:50:55;;;;;;;1.30;1.20;;;18.40;54.20;;;;;;5031697;28;20026;-39
2021/04/13 02:53:46;;;;;;;1.60;1.50;;;18.30;54.20;;;;;;5029893;28;20017;-41
2021/04/13 02:56:41;;;;;;;1.48;1.38;;;18.30;54.30;;;;;;5007587;28;20048;-43
2021/04/13 02:59:09;;;;;;;;;;;18.40;54.90;;;;;;5020833;28;20082;-41
2021/04/13 03:01:35;;;;;;;1.25;1.17;;;18.40;54.30;;;;;;5022917;28;20394;-42
2021/04/13 03:04:04;;;;;;;1.65;1.33;;;18.40;54.20;;;;;;5024880;28;20100;-42
2021/04/13 03:06:30;;;;;;;3.30;1.30;;;18.30;54.30;;;;;;5013867;28;20018;-42
2021/04/13 03:08:55;;;;;;;1.77;1.40;;;18.30;54.90;;;;;;5024620;28;20486;-43
2021/04/13 03:11:23;;;;;;;1.27;1.17;;;18.30;54.40;;;;;;5007949;28;20025;-44
2021/04/13 03:13:49;;;;;;;1.00;0.90;;;18.30;54.30;;;;;;5029398;28;20494;-42
2021/04/13 03:16:16;;;;;;;1.20;1.13;;;18.30;54.20;;;;;;5013754;28;20029;-41
2021/04/13 03:18:47;;;;;;;1.40;1.33;;;18.20;54.30;;;;;;5016847;28;20040;-41
2021/04/13 03:21:15;;;;;;;1.00;1.00;;;18.30;54.40;;;;;;5014766;28;20036;-42
2021/04/13 03:23:41;;;;;;;2.08;0.95;;;18.30;54.30;;;;;;5028018;28;20561;-41
2021/04/13 03:26:10;;;;;;;1.75;1.17;;;18.30;54.10;;;;;;5000975;28;20021;-40
2021/04/13 03:28:52;;;;;;;1.20;1.10;;;18.40;54.10;;;;;;5028250;28;20110;-41
2021/04/13 03:31:18;;;;;;;1.42;1.33;;;18.30;54.20;;;;;;5012975;28;20026;-40
2021/04/13 03:33:44;;;;;;;1.52;1.42;;;18.20;55.00;;;;;;5012699;28;20478;-42
2021/04/13 03:36:21;;;;;;;1.50;1.40;;;18.10;55.60;;;;;;5028251;28;20116;-42
2021/04/13 03:38:48;;;;;;;1.52;1.33;;;18.10;56.20;;;;;;4993910;28;20128;-42
2021/04/13 03:41:15;;;;;;;1.15;1.05;;;18.00;56.40;;;;;;5023272;28;20025;-42
2021/04/13 03:43:41;;;;;;;1.20;1.10;;;18.00;56.60;;;;;;5031090;28;20038;-42
2021/04/13 03:46:09;;;;;;;1.35;1.25;;;18.00;56.60;;;;;;5012943;28;20025;-42
2021/04/13 03:48:34;;;;;;;1.13;1.10;;;18.00;56.60;;;;;;5011459;28;20045;-40
2021/04/13 03:51:04;;;;;;;1.20;1.20;;;18.10;56.30;;;;;;5027064;28;20026;-42
2021/04/13 03:53:33;;;;;;;1.17;1.08;;;18.10;56.20;;;;;;5028042;28;20029;-42
2021/04/13 03:56:09;;;;;;;1.10;1.00;;;18.20;56.10;;;;;;5029815;28;20034;-41
2021/04/13 03:58:40;;;;;;;0.98;0.98;;;18.20;56.00;;;;;;5021733;28;20035;-42
2021/04/13 04:01:07;;;;;;;0.88;0.88;;;18.20;55.80;;;;;;5017248;28;20033;-42
2021/04/13 04:03:35;;;;;;;1.27;1.17;;;18.30;55.60;;;;;;5031062;28;20037;-42
2021/04/13 04:06:01;;;;;;;1.20;1.10;;;18.30;55.60;;;;;;5029616;28;20033;-42
2021/04/13 04:08:52;;;;;;;1.20;1.10;;;18.30;55.50;;;;;;5027828;28;20017;-42
2021/04/13 04:11:28;;;;;;;0.90;0.90;;;18.20;55.90;;;;;;5024943;28;20119;-39
2021/04/13 04:13:54;;;;;;;1.90;1.80;;;18.30;55.60;;;;;;5004034;28;20180;-40
2021/04/13 04:16:30;;;;;;;1.00;1.00;;;18.30;55.40;;;;;;5029876;28;20029;-41
2021/04/13 04:18:56;;;;;;;1.08;1.08;;;18.40;55.90;;;;;;5018154;28;20030;-39
2021/04/13 04:21:35;;;;;;;0.90;0.90;;;18.30;55.50;;;;;;5028859;28;20025;-40
2021/04/13 04:24:21;;;;;;;0.98;0.98;;;18.20;55.40;;;;;;5028972;28;20042;-43
2021/04/13 04:26:55;;;;;;;1.35;1.10;;;18.20;56.10;;;;;;5027341;28;20474;-41
2021/04/13 04:29:31;;;;;;;1.00;1.00;;;18.20;55.40;;;;;;5011879;28;20025;-41
2021/04/13 04:32:10;;;;;;;0.98;0.98;;;18.30;55.30;;;;;;5023147;28;20490;-42
2021/04/13 04:34:40;;;;;;;0.90;0.90;;;18.30;55.10;;;;;;5017217;28;20033;-42
2021/04/13 04:37:44;;;;;;;0.95;0.90;;;18.30;54.90;;;;;;5016005;28;20037;-44
2021/04/13 04:40:10;;;;;;;1.10;1.00;;;18.30;54.90;;;;;;5017799;28;20436;-41
2021/04/13 04:42:37;;;;;;;1.27;0.80;;;18.30;54.90;;;;;;5021268;28;20489;-41
2021/04/13 04:45:10;;;;;;;0.90;0.90;;;18.30;55.00;;;;;;5027722;28;20192;-42
2021/04/13 04:47:37;;;;;;;0.90;0.90;;;18.20;55.10;;;;;;5025110;28;20034;-40
2021/04/13 04:50:07;;;;;;;1.00;1.00;;;18.30;55.00;;;;;;5025631;28;20029;-40
2021/04/13 04:52:33;;;;;;;1.00;1.00;;;18.20;55.00;;;;;;5027339;28;20025;-42
2021/04/13 04:54:58;;;;;;;1.02;1.02;;;18.20;55.00;;;;;;5021101;28;20037;-43
2021/04/13 04:57:24;;;;;;;1.00;1.00;;;18.20;54.90;;;;;;5026377;28;20030;-42
2021/04/13 04:59:49;;;;;;;1.48;1.38;;;18.20;54.80;;;;;;5026763;28;20025;-44
2021/04/13 05:02:15;;;;;;;1.00;1.00;;;18.20;54.80;;;;;;5022583;28;20394;-42
2021/04/13 05:04:41;;;;;;;1.00;1.00;;;18.20;54.80;;;;;;5028396;28;20111;-40
2021/04/13 05:07:07;;;;;;;1.00;0.80;;;18.20;54.80;;;;;;5018877;28;20022;-43
2021/04/13 05:09:32;;;;;;;0.80;0.80;;;18.20;55.40;;;;;;5023656;28;20453;-41
2021/04/13 05:11:59;;;;;;;0.93;0.93;;;18.20;55.00;;;;;;5028605;28;20021;-41
2021/04/13 05:14:24;;;;;;;1.10;1.00;;;18.20;55.00;;;;;;5027223;28;20678;-46
2021/04/13 05:16:52;;;;;;;0.82;0.82;;;18.20;54.70;;;;;;5031107;28;20037;-44
2021/04/13 05:19:17;;;;;;;0.77;0.77;;;18.20;55.50;;;;;;5031211;28;20068;-43
2021/04/13 05:21:43;;;;;;;0.80;0.80;;;18.20;54.70;;;;;;5034839;28;20029;-43
2021/04/13 05:24:10;;;;;;;0.88;0.88;;;18.20;54.70;;;;;;5031171;28;20049;-42
2021/04/13 05:26:36;;;;;;;1.30;1.20;;;18.20;54.60;;;;;;5026309;28;20026;-43
2021/04/13 05:29:03;;;;;;;1.15;1.05;;;18.30;54.60;;;;;;5023283;28;20026;-42
2021/04/13 05:31:29;;;;;;;0.90;0.90;;;18.10;56.60;;;;;;5008921;28;20103;-41
2021/04/13 05:33:54;;;;;;;0.80;0.80;;;18.00;56.30;;;;;;5032780;28;20026;-42
2021/04/13 05:36:20;;;;;;;0.80;0.80;;;17.90;56.80;;;;;;5026133;28;20034;-41
2021/04/13 05:38:45;;;;;;;0.73;0.73;;;17.80;56.80;;;;;;5024467;28;20037;-42
2021/04/13 05:41:13;;;;;;;1.15;1.05;;;17.80;57.00;;;;;;5032925;28;20026;-42
2021/04/13 05:43:38;;;;;;;0.95;0.95;;;17.80;57.20;;;;;;5005607;28;20172;-43
2021/04/13 05:46:04;;;;;;;0.82;0.82;;;17.80;57.10;;;;;;5011130;28;20101;-42
2021/04/13 05:48:30;;;;;;;0.90;0.90;;;17.80;57.10;;;;;;5003273;28;20536;-44
2021/04/13 05:50:56;;;;;;;0.82;0.82;;;17.80;57.20;;;;;;5029070;28;20129;-42
2021/04/13 05:53:21;;;;;;;1.00;1.00;;;17.80;57.30;;;;;;5033153;28;20033;-42
2021/04/13 05:55:47;;;;;;;1.23;0.70;;;17.80;57.10;;;;;;5015008;28;20018;-44
2021/04/13 05:58:27;;;;;;;0.77;0.77;;;17.80;57.30;;;;;;5031653;28;20034;-42
2021/04/13 06:00:54;;;;;;;0.80;0.80;;;17.80;57.30;;;;;;5015262;28;20025;-42
2021/04/13 06:03:21;;;;;;;1.25;0.57;;;17.90;57.20;;;;;;5030947;28;20030;-42
2021/04/13 06:05:47;;;;;;;0.70;0.70;;;17.80;57.30;;;;;;5012534;28;20041;-42
2021/04/13 06:08:13;;;;;;;0.70;0.70;;;17.80;57.30;;;;;;5028924;28;20033;-41
2021/04/13 06:10:38;;;;;;;1.27;0.90;;;17.80;57.30;;;;;;5031739;28;20033;-44
2021/04/13 06:13:04;;;;;;;0.60;0.60;;;17.80;57.30;;;;;;5031436;28;20511;-43
2021/04/13 06:15:30;;;;;;;0.73;0.73;;;17.80;57.20;;;;;;5033343;28;20025;-42
2021/04/13 06:17:57;;;;;;;0.82;0.82;;;17.80;57.30;;;;;;5032625;28;20370;-42
2021/04/13 06:20:22;;;;;;;0.80;0.80;;;17.80;57.40;;;;;;5032317;28;20442;-43
2021/04/13 06:22:49;;;;;;;0.70;0.70;;;17.90;57.20;;;;;;5029491;28;20591;-42
2021/04/13 06:25:19;;;;;;;1.52;0.63;;;17.80;56.90;;;;;;5029206;28;20041;-42
2021/04/13 06:27:44;;;;;;;0.70;0.70;;;17.90;57.30;;;;;;5030092;28;20153;-42
2021/04/13 06:30:11;;;;;;;0.70;0.70;;;17.90;57.20;;;;;;5026381;28;20096;-43
2021/04/13 06:32:36;;;;;;;1.33;1.00;;;17.90;57.30;;;;;;5028027;28;20014;-43
2021/04/13 06:35:02;;;;;;;0.70;0.55;;;17.90;57.40;;;;;;5026419;28;20044;-43
2021/04/13 06:37:28;;;;;;;0.60;0.60;;;18.00;57.20;;;;;;5031141;28;20077;-42
2021/04/13 06:39:54;;;;;;;0.65;0.65;;;17.90;57.70;;;;;;5029401;28;20614;-42
2021/04/13 06:42:34;;;;;;;1.50;0.80;;;17.90;57.40;;;;;;5033068;28;20150;-44
2021/04/13 06:45:02;;;;;;;1.90;0.80;;;17.90;57.20;;;;;;5031150;28;20037;-43
2021/04/13 06:48:04;;;;;;;0.70;0.70;;;17.80;57.30;;;;;;5031458;28;20394;-39
2021/04/13 06:50:50;;;;;;;2.28;0.70;;;17.90;57.30;;;;;;5045493;28;20021;-42
2021/04/13 06:53:31;;;;;;;0.90;0.60;;;17.90;57.20;;;;;;5025323;28;20025;-43
2021/04/13 06:56:06;;;;;;;0.70;0.70;;;17.90;57.00;;;;;;5030247;28;20018;-43
2021/04/13 06:59:07;;;;;;;1.10;1.00;;;17.90;57.00;;;;;;5031268;28;20073;-43
2021/04/13 07:01:43;;;;;;;0.70;0.70;;;18.00;57.10;;;;;;5015661;28;20038;-42
2021/04/13 07:04:14;;;;;;;0.70;0.70;;;18.00;57.10;;;;;;5014482;28;20044;-41
2021/04/13 07:06:42;;;;;;;0.90;0.90;;;18.00;56.80;;;;;;5016117;28;20030;-41
2021/04/13 07:09:56;;;;;;;0.75;0.75;;;18.10;57.20;;;;;;5019646;28;20112;-41
2021/04/13 07:12:25;;;;;;;1.35;0.75;;;18.10;56.90;;;;;;5030303;28;20029;-44
2021/04/13 07:15:23;;;;;;;1.08;0.70;;;18.10;57.00;;;;;;5030888;28;20128;-43
2021/04/13 07:18:12;;;;;;;1.13;0.88;;;18.00;57.00;;;;;;5025364;28;20107;-40
2021/04/13 07:20:45;;;;;;;0.70;0.70;;;18.00;57.40;;;;;;5030228;28;20036;-42
2021/04/13 07:23:26;;;;;;;0.70;0.70;;;18.00;56.70;;;;;;5014478;28;20026;-42
2021/04/13 07:25:58;;;;;;;1.20;0.90;;;18.10;57.20;;;;;;5010100;28;20512;-40
2021/04/13 07:28:27;;;;;;;2.25;1.00;;;18.10;57.20;;;;;;5011289;28;20017;-42
2021/04/13 07:31:00;;;;;;;0.90;0.90;;;18.20;56.30;;;;;;5027963;28;20057;-43
2021/04/13 07:33:28;;;;;;;1.13;0.90;;;18.30;56.80;;;;;;5009691;28;20018;-42
2021/04/13 07:36:00;;;;;;;1.45;1.00;;;18.40;56.10;;;;;;5028146;28;20025;-42
2021/04/13 07:38:29;;;;;;;1.80;1.00;;;18.70;55.80;;;;;;5013259;28;20498;-44
2021/04/13 07:40:59;;;;;;;1.58;0.98;;;18.80;55.20;;;;;;5028374;28;20028;-43
2021/04/13 07:43:27;;;;;;;2.55;0.95;;;18.70;55.50;;;;;;5026306;28;20042;-42
2021/04/13 07:46:17;;;;;;;2.97;1.10;;;19.00;55.50;;;;;;5028606;28;20109;-42
2021/04/13 07:49:15;;;;;;;0.90;0.90;;;19.20;55.00;;;;;;5028602;28;20029;-41
2021/04/13 07:51:42;;;;;;;1.33;1.00;;;18.90;55.90;;;;;;5028122;28;20024;-42
2021/04/13 07:54:26;;;;;;;1.77;1.15;;;18.70;56.00;;;;;;5027603;28;20034;-44
2021/04/13 07:56:55;;;;;;;0.88;0.88;;;18.60;56.30;;;;;;5026088;28;20079;-44
2021/04/13 07:59:50;;;;;;;1.70;0.70;;;18.40;56.90;;;;;;5006624;28;20047;-42
2021/04/13 08:02:16;;;;;;;0.60;0.60;;;18.30;56.90;;;;;;5026292;28;20034;-41
2021/04/13 08:04:45;;;;;;;0.95;0.80;;;18.20;56.90;;;;;;5021107;28;20056;-42
2021/04/13 08:07:14;;;;;;;3.35;0.80;;;18.30;56.60;;;;;;5011074;28;20025;-42
2021/04/13 08:09:59;;;;;;;1.45;0.65;;;18.40;56.50;;;;;;5017958;28;20037;-42
2021/04/13 08:12:32;;;;;;;0.70;0.57;;;18.50;56.50;;;;;;4673259;28;10000536;-41
2021/04/13 08:15:12;;;;;;;3.17;0.80;;;18.40;56.20;;;;;;5025636;28;20049;-42
2021/04/13 08:18:01;;;;;;;0.52;0.50;;;18.40;56.50;;;;;;5029576;28;20898;-42
2021/04/13 08:20:47;;;;;;;2.58;1.05;;;18.40;56.40;;;;;;5024623;28;20049;-43
2021/04/13 08:23:14;;;;;;;0.68;0.57;;;18.40;56.40;;;;;;5043691;28;20068;-42
2021/04/13 08:25:42;;;;;;;0.70;0.70;;;18.50;56.40;;;;;;5042391;28;20065;-41
2021/04/13 08:28:19;;;;;;;2.53;0.70;;;18.50;56.20;;;;;;5031732;28;20407;-42
2021/04/13 08:34:40;;;;;;;0.65;0.60;;;18.60;55.60;;;;;;5037351;28;20044;-45
2021/04/13 08:37:09;;;;;;;0.88;0.75;;;18.60;55.60;;;;;;5036886;28;20119;-44
2021/04/13 08:39:46;;;;;;;1.50;0.80;;;18.50;55.80;;;;;;5043912;28;20064;-45
2021/04/13 08:42:32;;;;;;;1.95;0.80;;;18.40;56.00;;;;;;5031460;28;20057;-46
2021/04/13 08:45:05;;;;;;;0.70;0.70;;;18.50;55.90;;;;;;5019748;28;20042;-45
2021/04/13 08:47:46;;;;;;;0.60;0.60;;;18.60;55.90;;;;;;5015450;28;20062;-42
2021/04/13 08:50:34;;;;;;;0.50;0.50;;;18.60;55.80;;;;;;5032979;28;20072;-44
2021/04/13 08:53:10;;;;;;;0.55;0.50;;;18.70;55.60;;;;;;5037407;28;20053;-45
2021/04/13 08:55:35;;;;;;;0.52;0.50;;;18.80;55.60;;;;;;5041627;28;20049;-43
2021/04/13 08:58:05;;;;;;;0.50;0.50;;;18.80;55.40;;;;;;5045112;28;20760;-43
2021/04/13 09:00:47;;;;;;;0.70;0.60;;;18.90;55.60;;;;;;5038523;28;20436;-44
2021/04/13 09:03:15;;;;;;;2.60;0.60;;;19.00;55.00;;;;;;5043241;28;20057;-44
2021/04/13 09:05:41;;;;;;;1.05;0.70;;;19.00;55.10;;;;;;5043351;28;20063;-42
2021/04/13 09:08:13;;;;;;;0.73;0.50;;;19.10;55.00;;;;;;5039230;28;20668;-43
2021/04/13 09:10:47;;;;;;;0.70;0.52;;;19.10;54.80;;;;;;5032088;28;20049;-44
2021/04/13 09:13:21;;;;;;;3.58;0.90;;;19.10;54.80;;;;;;5046021;28;20770;-42
2021/04/13 09:16:05;;;;;;;2.38;0.70;;;19.20;54.80;;;;;;5042502;28;20045;-46
2021/04/13 09:18:46;;;;;;;1.77;0.65;;;19.30;54.60;;;;;;5041217;28;20041;-48
2021/04/13 09:21:21;;;;;;;0.68;0.68;;;19.30;54.20;;;;;;5012847;28;20064;-44
2021/04/13 09:24:14;;;;;;;0.88;0.60;;;19.40;53.90;;;;;;5022469;28;20099;-44
2021/04/13 09:27:01;;;;;;;1.30;1.10;;;19.40;54.10;;;;;;5019197;28;20563;-43
2021/04/13 09:29:35;;;;;;;0.63;0.63;;;19.50;54.30;;;;;;5021721;28;20013;-45
2021/04/13 09:32:01;;;;;;;0.60;0.60;;;19.60;54.10;;;;;;5025029;28;20068;-45
2021/04/13 09:34:27;;;;;;;1.48;0.57;;;19.60;53.70;;;;;;5023003;28;20022;-44
2021/04/13 09:37:04;;;;;;;0.82;0.82;;;19.60;53.80;;;;;;5029693;28;20056;-44
2021/04/13 09:40:07;;;;;;;0.60;0.60;;;19.60;53.80;;;;;;5045480;28;20045;-44
2021/04/13 09:43:04;;;;;;;4.30;0.80;;;19.70;53.60;;;;;;5044528;28;20128;-41
2021/04/13 09:45:29;;;;;;;3.67;1.13;;;19.80;54.20;;;;;;5044598;28;20095;-42
2021/04/13 09:48:16;;;;;;;2.05;0.70;;;19.90;54.50;;;;;;5041871;28;20069;-43
2021/04/13 09:51:00;;;;;;;0.85;0.80;;;19.90;53.70;;;;;;5033764;28;20048;-42
2021/04/13 09:53:42;;;;;;;2.08;0.80;;;19.90;53.90;;;;;;5039008;28;20064;-43
2021/04/13 09:56:07;;;;;;;0.85;0.85;;;19.90;53.40;;;;;;5040937;28;20037;-43
2021/04/13 09:58:54;;;;;;;1.45;0.73;;;20.00;53.60;;;;;;5042866;28;20394;-42
2021/04/13 10:01:38;;;;;;;1.05;0.63;;;20.00;53.50;;;;;;5027686;28;20051;-42
2021/04/13 10:04:31;;;;;;;0.60;0.60;;;20.10;53.80;;;;;;5043155;28;20053;-44
2021/04/13 10:07:26;;;;;;;4.70;0.68;;;20.10;54.00;;;;;;5034225;28;20045;-43
2021/04/13 10:09:52;;;;;;;0.80;0.75;;;20.20;53.90;;;;;;5049181;28;20045;-43
2021/04/13 10:12:50;;;;;;;4.05;0.77;;;20.10;54.00;;;;;;5043245;28;20434;-43
2021/04/13 10:15:21;;;;;;;0.90;0.90;;;20.20;54.40;;;;;;5033614;28;20115;-44
2021/04/13 10:18:14;;;;;;;1.23;0.80;;;20.20;53.70;;;;;;5031317;28;20060;-46
2021/04/13 10:20:58;;;;;;;3.35;1.30;;;20.30;53.40;;;;;;5040938;28;20041;-44
2021/04/13 10:24:07;;;;;;;1.33;1.00;;;20.30;53.40;;;;;;5043513;28;20118;-43
2021/04/13 10:26:45;;;;;;;3.30;0.90;;;20.30;53.40;;;;;;5026913;28;20045;-43
2021/04/13 10:29:29;;;;;;;1.98;1.23;;;20.30;53.30;;;;;;5037142;28;20598;-42
2021/04/13 10:32:33;;;;;;;1.15;1.05;;;20.40;53.50;;;;;;5043385;28;20045;-42
2021/04/13 10:35:20;;;;;;;5.25;0.95;;;20.50;53.40;;;;;;5042997;28;20034;-42
2021/04/13 10:38:07;;;;;;;4.30;1.30;;;20.40;53.50;;;;;;5044249;28;20056;-44
2021/04/13 10:40:55;;;;;;;4.00;1.00;;;20.30;53.70;;;;;;5044669;28;20040;-46
2021/04/13 10:43:44;;;;;;;2.67;0.90;;;20.40;53.70;;;;;;5042294;28;20168;-42
2021/04/13 10:46:31;;;;;;;6.68;1.20;;;20.30;54.00;;;;;;5042303;28;20128;-40
2021/04/13 10:49:31;;;;;;;11.45;1.50;;;20.40;54.20;;;;;;5050723;28;20672;-42
2021/04/13 10:52:12;;;;;;;4.20;1.10;;;20.50;54.20;;;;;;5044559;28;20083;-43
2021/04/13 10:54:56;;;;;;;5.50;1.50;;;20.50;54.50;;;;;;5044228;28;20045;-45
2021/04/13 10:57:41;;;;;;;4.20;1.40;;;20.50;54.60;;;;;;5045058;28;20052;-42
2021/04/13 11:00:24;;;;;;;4.47;1.40;;;20.50;54.20;;;;;;5046664;28;20048;-43
2021/04/13 11:03:11;;;;;;;14.05;1.95;;;20.60;54.10;;;;;;5042673;28;20566;-42
2021/04/13 11:06:13;;;;;;;2.38;1.35;;;20.60;54.30;;;;;;5037659;28;20063;-42
2021/04/13 11:09:17;;;;;;;4.45;1.33;;;20.60;54.10;;;;;;5044081;28;20167;-42
2021/04/13 11:12:06;;;;;;;3.58;1.20;;;20.60;54.10;;;;;;5044472;28;20127;-43
2021/04/13 11:14:52;;;;;;;2.20;1.10;;;20.60;54.10;;;;;;5042490;28;20033;-43
2021/04/13 11:17:27;;;;;;;2.97;1.25;;;20.60;54.00;;;;;;5033521;28;20028;-43
2021/04/13 11:20:05;;;;;;;2.60;0.90;;;20.60;53.80;;;;;;5026491;28;20099;-42
2021/04/13 11:22:35;;;;;;;1.58;0.98;;;20.60;53.70;;;;;;5025055;28;20103;-44
2021/04/13 11:25:19;;;;;;;6.65;1.05;;;20.70;53.40;;;;;;5039549;28;20445;-45
2021/04/13 11:28:12;;;;;;;0.93;0.90;;;20.60;53.50;;;;;;5046310;28;20041;-43
2021/04/13 11:31:19;;;;;;;3.20;1.20;;;20.60;53.40;;;;;;5046583;28;21082;-43
2021/04/13 11:33:54;;;;;;;0.90;0.90;;;20.60;53.40;;;;;;5044231;28;20053;-42
2021/04/13 11:36:41;;;;;;;1.50;0.90;;;20.70;53.20;;;;;;5037024;28;20037;-43
2021/04/13 11:39:32;;;;;;;1.13;1.00;;;20.60;53.20;;;;;;5024806;28;20052;-42
2021/04/13 11:42:19;;;;;;;1.33;1.00;;;20.70;53.00;;;;;;5024463;28;20037;-45
2021/04/13 11:44:51;;;;;;;2.75;1.13;;;20.70;53.10;;;;;;5024111;28;20041;-43
2021/04/13 11:47:26;;;;;;;1.70;1.00;;;20.70;53.00;;;;;;5025941;28;20056;-43
2021/04/13 11:49:55;;;;;;;1.10;1.00;;;20.70;52.90;;;;;;5043066;28;20049;-42
2021/04/13 11:52:25;;;;;;;1.02;1.02;;;20.70;52.90;;;;;;5044963;28;20519;-41
2021/04/13 11:54:54;;;;;;;1.40;1.30;;;20.60;53.50;;;;;;5041999;28;20919;-43
2021/04/13 11:57:23;;;;;;;2.15;0.80;;;20.60;53.70;;;;;;5046610;28;20045;-43
2021/04/13 12:00:08;;;;;;;4.45;0.80;;;20.70;53.20;;;;;;5044777;28;20566;-45
2021/04/13 12:02:34;;;;;;;;;;;20.80;53.00;;;;;;5044032;28;20525;-42
2021/04/13 12:05:00;;;;;;;0.95;0.95;;;20.90;52.90;;;;;;5044742;28;20389;-43
2021/04/13 12:07:45;;;;;;;1.42;1.00;;;20.90;52.90;;;;;;5045357;28;20075;-42
2021/04/13 12:10:30;;;;;;;0.90;0.70;;;20.90;52.70;;;;;;5042956;28;20049;-44
2021/04/13 12:12:59;;;;;;;1.95;0.90;;;20.80;52.90;;;;;;5040297;28;20084;-43
2021/04/13 12:15:25;;;;;;;0.93;0.82;;;20.90;52.80;;;;;;5040302;28;20045;-45
2021/04/13 12:17:51;;;;;;;2.05;0.85;;;20.90;52.70;;;;;;5037183;28;20547;-45
2021/04/13 12:20:27;;;;;;;0.90;0.80;;;20.80;52.90;;;;;;5042375;28;20059;-41
2021/04/13 12:23:00;;;;;;;0.70;0.70;;;20.80;52.70;;;;;;5034414;28;20086;-43
2021/04/13 12:25:44;;;;;;;1.00;0.80;;;20.80;52.50;;;;;;5042938;28;20501;-44
2021/04/13 12:28:28;;;;;;;1.75;0.85;;;20.70;52.70;;;;;;5033106;28;20049;-44
2021/04/13 12:31:15;;;;;;;;;;;20.70;52.60;;;;;;5023046;28;20061;-43
2021/04/13 12:34:03;;;;;;;1.38;0.70;;;20.80;52.50;;;;;;5043614;28;19921;-44
2021/04/13 12:36:52;;;;;;;1.45;1.00;;;20.70;52.40;;;;;;5042631;28;20037;-44
2021/04/13 12:39:43;;;;;;;1.08;0.98;;;20.80;52.40;;;;;;5046943;28;20048;-43
2021/04/13 12:42:29;;;;;;;4.22;0.75;;;20.80;52.40;;;;;;5036045;28;20049;-44
2021/04/13 12:45:16;;;;;;;1.85;0.70;;;20.80;52.30;;;;;;5044476;28;20511;-43
2021/04/13 12:47:43;;;;;;;1.10;1.00;;;20.80;52.40;;;;;;5037309;28;22349;-43
2021/04/13 12:50:33;;;;;;;2.05;1.45;;;20.70;52.50;;;;;;5041321;28;20414;-44
2021/04/13 12:53:00;;;;;;;2.72;1.20;;;20.70;52.80;;;;;;5036070;28;20064;-41
2021/04/13 12:55:26;;;;;;;1.50;1.25;;;20.70;53.10;;;;;;5029061;28;20489;-44
2021/04/13 12:57:57;;;;;;;1.80;0.98;;;20.80;52.80;;;;;;5046036;28;20045;-41
2021/04/13 13:00:29;;;;;;;1.10;0.80;;;20.70;52.60;;;;;;5046043;28;20032;-43
2021/04/13 13:02:55;;;;;;;2.10;0.60;;;20.80;52.60;;;;;;5025161;28;20049;-44
2021/04/13 13:05:27;;;;;;;2.55;0.80;;;20.80;52.70;;;;;;5027276;28;20052;-42
2021/04/13 13:07:57;;;;;;;0.80;0.80;;;20.80;52.50;;;;;;5029365;28;20044;-44
2021/04/13 13:10:28;;;;;;;0.60;0.60;;;20.80;52.20;;;;;;5032990;28;20124;-43
2021/04/13 13:13:00;;;;;;;0.90;0.63;;;20.80;52.20;;;;;;5038181;28;20854;-43
2021/04/13 13:15:25;;;;;;;1.85;0.70;;;20.90;52.20;;;;;;5030178;28;20116;-44
2021/04/13 13:17:52;;;;;;;4.05;0.70;;;20.90;52.10;;;;;;5026894;28;20152;-44
2021/04/13 13:20:29;;;;;;;0.80;0.80;;;20.90;52.40;;;;;;5039945;28;20050;-44
2021/04/13 13:22:55;;;;;;;0.90;0.90;;;20.90;52.60;;;;;;5022000;28;20053;-43
2021/04/13 13:25:34;;;;;;;2.15;0.70;;;20.90;53.00;;;;;;5023384;28;20041;-47
2021/04/13 13:28:26;;;;;;;0.98;0.80;;;20.80;53.10;;;;;;5021787;28;20042;-44
2021/04/13 13:30:52;;;;;;;2.05;0.98;;;20.80;53.40;;;;;;5024972;28;20064;-44
2021/04/13 13:33:21;;;;;;;0.80;0.80;;;20.90;53.60;;;;;;5025088;28;20065;-47
2021/04/13 13:35:47;;;;;;;1.50;0.60;;;20.90;54.00;;;;;;5031520;28;20539;-43